createdAt,value
2022-10-12T00:01:50.921Z,91.00
2022-10-12T00:06:52.379Z,91.69
2022-10-12T00:11:53.780Z,91.43
2022-10-12T00:16:55.243Z,91.99
2022-10-12T00:21:56.648Z,91.52
2022-10-12T00:26:58.189Z,92.16
2022-10-12T00:31:59.618Z,92.73
2022-10-12T00:37:01.188Z,92.43
2022-10-12T00:42:02.955Z,92.63
2022-10-12T00:47:10.483Z,93.25
2022-10-12T00:52:15.572Z,93.03
2022-10-12T00:57:18.940Z,92.94
2022-10-12T01:02:22.212Z,93.24
2022-10-12T01:07:23.665Z,92.91
2022-10-12T01:12:26.662Z,92.13
2022-10-12T01:17:46.546Z,90.96
2022-10-12T01:23:06.564Z,92.18
2022-10-12T01:28:29.575Z,92.87
2022-10-12T01:33:45.493Z,93.09
2022-10-12T01:38:55.932Z,93.22
2022-10-12T01:43:57.352Z,93.31
2022-10-12T01:49:01.180Z,93.31
2022-10-12T01:54:19.772Z,94.08
2022-10-12T01:59:38.890Z,93.73
2022-10-12T02:04:58.284Z,92.98
2022-10-12T02:10:02.826Z,93.81
2022-10-12T02:15:08.245Z,95.22
2022-10-12T02:20:12.847Z,94.92
2022-10-12T02:25:18.271Z,95.37
2022-10-12T02:30:21.319Z,95.80
2022-10-12T02:35:38.528Z,95.71
2022-10-12T02:41:00.902Z,95.05
2022-10-12T02:46:05.982Z,94.83
2022-10-12T02:51:10.310Z,94.88
2022-10-12T02:56:14.113Z,94.94
2022-10-12T03:01:19.663Z,94.13
2022-10-12T03:06:21.392Z,93.49
2022-10-12T03:11:23.735Z,94.30
2022-10-12T03:16:25.331Z,94.53
2022-10-12T03:21:26.709Z,95.17
2022-10-12T03:26:28.107Z,95.08
2022-10-12T03:31:29.591Z,94.55
2022-10-12T03:36:31.307Z,94.31
2022-10-12T03:41:32.695Z,92.90
2022-10-12T03:46:34.078Z,94.43
2022-10-12T03:51:35.534Z,95.28
2022-10-12T03:56:37.206Z,96.64
2022-10-12T04:01:38.639Z,95.79
2022-10-12T04:06:40.081Z,96.10
2022-10-12T04:11:41.473Z,94.90
2022-10-12T04:16:42.868Z,95.86
2022-10-12T04:21:44.232Z,94.05
2022-10-12T04:26:45.670Z,94.06
2022-10-12T04:31:47.056Z,93.66
2022-10-12T04:36:48.519Z,95.12
2022-10-12T04:41:49.892Z,94.11
2022-10-12T04:46:51.266Z,93.58
2022-10-12T04:51:52.689Z,94.26
2022-10-12T04:56:54.161Z,94.59
2022-10-12T05:01:55.666Z,94.63
2022-10-12T05:06:57.094Z,93.96
2022-10-12T05:11:58.477Z,93.84
2022-10-12T05:16:59.863Z,93.75
2022-10-12T05:22:01.618Z,94.61
2022-10-12T05:27:03.072Z,94.17
2022-10-12T05:32:04.718Z,94.93
2022-10-12T05:37:06.129Z,94.85
2022-10-12T05:42:07.573Z,95.01
2022-10-12T05:47:09.012Z,95.22
2022-10-12T05:52:10.553Z,94.61
2022-10-12T05:57:14.646Z,94.80
2022-10-12T06:02:17.865Z,94.71
2022-10-12T06:07:19.387Z,94.11
2022-10-12T06:12:20.802Z,95.51
2022-10-12T06:17:22.218Z,95.61
2022-10-12T06:22:23.601Z,94.97
2022-10-12T06:27:25.267Z,95.41
2022-10-12T06:32:26.661Z,96.05
2022-10-12T06:37:48.502Z,95.14
2022-10-12T06:42:54.932Z,94.15
2022-10-12T06:48:00.102Z,95.01
2022-10-12T06:53:01.547Z,94.23
2022-10-12T06:58:02.990Z,95.43
2022-10-12T07:03:04.555Z,96.19
2022-10-12T07:08:05.967Z,96.57
2022-10-12T07:13:07.394Z,98.15
2022-10-12T07:18:08.799Z,98.81
2022-10-12T07:23:10.195Z,98.68
2022-10-12T07:28:11.726Z,99.68
2022-10-12T07:33:13.164Z,100.00
2022-10-12T07:38:14.544Z,100.00
2022-10-12T07:43:16.613Z,100.00
2022-10-12T07:48:18.202Z,100.00
2022-10-12T07:53:19.602Z,100.00
2022-10-12T07:58:21.131Z,99.07
2022-10-12T08:03:22.620Z,99.03
2022-10-12T08:08:24.102Z,96.50
2022-10-12T08:13:25.583Z,96.47
2022-10-12T08:18:27.008Z,96.08
2022-10-12T08:23:29.302Z,96.31
2022-10-12T08:28:31.051Z,95.98
2022-10-12T08:33:33.134Z,97.79
2022-10-12T08:38:38.657Z,96.80
2022-10-12T08:43:51.898Z,93.55
2022-10-12T08:49:01.659Z,93.58
2022-10-12T08:54:07.414Z,91.87
2022-10-12T08:59:17.785Z,92.10
2022-10-12T09:04:34.165Z,92.62
2022-10-12T09:09:50.500Z,92.93
2022-10-12T09:14:56.748Z,92.56
2022-10-12T09:20:30.724Z,92.62
2022-10-12T09:25:32.145Z,92.28
2022-10-12T09:30:38.764Z,91.81
2022-10-12T09:35:41.896Z,90.48
2022-10-12T09:40:45.065Z,90.38
2022-10-12T09:45:46.639Z,89.28
2022-10-12T09:50:56.094Z,87.94
2022-10-12T09:56:07.766Z,87.51
2022-10-12T10:01:28.582Z,87.15
2022-10-12T10:06:30.057Z,86.80
2022-10-12T10:11:31.605Z,86.19
2022-10-12T10:16:33.159Z,85.25
2022-10-12T10:21:37.654Z,85.06
2022-10-12T10:27:02.489Z,83.84
2022-10-12T10:32:16.255Z,81.09
2022-10-12T10:37:22.790Z,80.32
2022-10-12T10:42:31.491Z,80.91
2022-10-12T10:47:41.715Z,81.06
2022-10-12T10:52:43.754Z,80.86
2022-10-12T10:58:03.306Z,78.72
2022-10-12T11:03:12.918Z,76.03
2022-10-12T11:08:29.854Z,73.12
2022-10-12T11:13:37.804Z,73.64
2022-10-12T11:18:45.593Z,73.70
2022-10-12T11:23:51.847Z,71.93
2022-10-12T11:28:56.795Z,72.70
2022-10-12T11:34:03.234Z,72.17
2022-10-12T11:39:42.666Z,72.24
2022-10-12T11:44:46.197Z,71.09
2022-10-12T11:49:59.742Z,69.97
2022-10-12T11:55:30.598Z,68.96
2022-10-12T12:00:48.208Z,68.05
2022-10-12T12:05:49.756Z,68.27
2022-10-12T12:11:02.046Z,69.32
2022-10-12T12:16:12.273Z,68.53
2022-10-12T12:21:13.733Z,69.12
2022-10-12T12:26:17.798Z,68.37
2022-10-12T12:31:21.938Z,70.04
2022-10-12T12:36:35.666Z,70.60
2022-10-12T12:42:01.653Z,70.43
2022-10-12T12:47:08.483Z,70.90
2022-10-12T12:52:24.673Z,70.31
2022-10-12T12:57:47.513Z,69.05
2022-10-12T13:03:07.914Z,69.42
2022-10-12T13:08:46.992Z,69.06
2022-10-12T13:14:05.910Z,68.94
2022-10-12T13:19:13.011Z,69.66
2022-10-12T13:24:16.231Z,69.71
2022-10-12T13:29:43.397Z,69.97
2022-10-12T13:34:47.329Z,68.89
2022-10-12T13:39:49.956Z,70.64
2022-10-12T13:44:51.467Z,71.74
2022-10-12T13:49:53.361Z,72.12
2022-10-12T13:54:55.677Z,71.33
2022-10-12T14:00:03.026Z,70.53
2022-10-12T14:05:15.939Z,72.40
2022-10-12T14:10:26.203Z,70.29
2022-10-12T14:15:33.822Z,70.03
2022-10-12T14:20:38.866Z,68.31
2022-10-12T14:26:00.686Z,69.42
2022-10-12T14:31:02.799Z,69.23
2022-10-12T14:36:29.967Z,69.61
2022-10-12T14:41:48.364Z,70.23
2022-10-12T14:47:05.979Z,69.67
2022-10-12T14:52:17.519Z,70.97
2022-10-12T14:57:19.425Z,70.61
2022-10-12T15:02:25.461Z,71.13
2022-10-12T15:07:30.734Z,71.22
2022-10-12T15:12:32.482Z,72.90
2022-10-12T15:17:33.907Z,72.43
2022-10-12T15:22:35.493Z,72.29
2022-10-12T15:27:36.969Z,72.43
2022-10-12T15:32:38.484Z,74.83
2022-10-12T15:37:39.903Z,76.81
2022-10-12T15:42:42.509Z,77.96
2022-10-12T15:47:48.216Z,77.80
2022-10-12T15:52:49.832Z,79.30
2022-10-12T15:57:51.639Z,80.80
2022-10-12T16:02:54.835Z,80.91
2022-10-12T16:07:56.435Z,82.25
2022-10-12T16:12:58.171Z,83.25
2022-10-12T16:18:01.098Z,84.40
2022-10-12T16:23:04.191Z,85.23
2022-10-12T16:28:05.722Z,84.73
2022-10-12T16:33:07.403Z,84.15
2022-10-12T16:38:09.718Z,86.08
2022-10-12T16:43:11.536Z,86.34
2022-10-12T16:48:13.094Z,87.44
2022-10-12T16:53:14.495Z,89.65
2022-10-12T16:58:15.994Z,88.03
2022-10-12T17:03:17.482Z,87.55
2022-10-12T17:08:18.896Z,88.68
2022-10-12T17:13:20.281Z,89.10
2022-10-12T17:18:21.730Z,91.88
2022-10-12T17:23:23.232Z,93.99
2022-10-12T17:28:24.854Z,93.89
2022-10-12T17:33:26.242Z,94.01
2022-10-12T17:38:27.699Z,94.57
2022-10-12T17:43:29.374Z,94.50
2022-10-12T17:48:31.059Z,95.36
2022-10-12T17:53:32.459Z,96.30
2022-10-12T17:58:36.198Z,96.99
2022-10-12T18:03:39.612Z,97.00
2022-10-12T18:08:41.563Z,97.24
2022-10-12T18:14:01.662Z,98.01
2022-10-12T18:19:05.271Z,97.49
2022-10-12T18:24:16.071Z,96.84
2022-10-12T18:29:18.026Z,98.71
2022-10-12T18:34:19.454Z,98.48
2022-10-12T18:39:20.845Z,99.11
2022-10-12T18:44:22.544Z,97.61
2022-10-12T18:49:24.131Z,97.18
2022-10-12T18:54:25.564Z,97.86
2022-10-12T18:59:27.075Z,97.96
2022-10-12T19:04:28.443Z,97.75
2022-10-12T19:09:29.918Z,99.40
2022-10-12T19:14:31.585Z,98.65
2022-10-12T19:19:33.022Z,98.14
2022-10-12T19:24:34.623Z,97.92
2022-10-12T19:29:36.266Z,98.07
2022-10-12T19:34:37.707Z,98.29
2022-10-12T19:39:44.429Z,98.77
2022-10-12T19:44:45.887Z,99.05
2022-10-12T19:49:47.272Z,99.57
2022-10-12T19:54:48.779Z,97.98
2022-10-12T19:59:50.210Z,98.34
2022-10-12T20:04:54.125Z,99.30
2022-10-12T20:09:55.561Z,99.08
2022-10-12T20:14:57.121Z,98.24
2022-10-12T20:19:58.510Z,97.89
2022-10-12T20:25:00.010Z,97.37
2022-10-12T20:30:01.484Z,97.62
2022-10-12T20:35:03.602Z,96.67
2022-10-12T20:40:05.615Z,97.43
2022-10-12T20:45:07.586Z,98.00
2022-10-12T20:50:10.043Z,97.85
2022-10-12T20:55:11.497Z,98.36
2022-10-12T21:00:13.535Z,98.42
2022-10-12T21:05:15.074Z,98.14
2022-10-12T21:10:16.683Z,97.79
2022-10-12T21:15:18.091Z,97.48
2022-10-12T21:20:19.507Z,97.13
2022-10-12T21:25:20.909Z,97.03
2022-10-12T21:30:22.323Z,97.69
2022-10-12T21:35:23.769Z,98.51
2022-10-12T21:40:25.269Z,97.49
2022-10-12T21:45:26.750Z,97.14
2022-10-12T21:50:28.313Z,97.39
2022-10-12T21:55:32.534Z,97.08
2022-10-12T22:00:34.040Z,97.26
2022-10-12T22:05:39.670Z,97.33
2022-10-12T22:10:41.130Z,96.95
2022-10-12T22:15:42.574Z,97.08
2022-10-12T22:20:45.961Z,96.46
2022-10-12T22:25:47.438Z,96.88
2022-10-12T22:30:48.918Z,97.28
2022-10-12T22:35:59.151Z,97.20
2022-10-12T22:41:03.351Z,96.94
2022-10-12T22:46:04.985Z,96.56
2022-10-12T22:51:07.290Z,96.90
2022-10-12T22:56:14.469Z,97.13
2022-10-12T23:01:17.203Z,96.18
2022-10-12T23:06:18.951Z,95.61
2022-10-12T23:11:22.837Z,96.00
2022-10-12T23:16:29.876Z,97.25
2022-10-12T23:21:32.579Z,97.43
2022-10-12T23:26:35.061Z,97.88
2022-10-12T23:31:36.506Z,97.85
2022-10-12T23:36:37.912Z,98.57
2022-10-12T23:41:39.309Z,97.64
2022-10-12T23:46:40.721Z,97.48
2022-10-12T23:51:42.380Z,98.12
2022-10-12T23:56:43.756Z,98.51
